createdAt,value
2019-02-18T00:00:47.332Z,4.77
2019-02-18T00:03:17.038Z,4.73
2019-02-18T00:05:46.637Z,4.72
2019-02-18T00:08:15.971Z,4.61
2019-02-18T00:10:45.315Z,4.58
2019-02-18T00:13:14.643Z,4.48
2019-02-18T00:15:43.974Z,4.41
2019-02-18T00:18:13.343Z,4.34
2019-02-18T00:20:42.950Z,4.32
2019-02-18T00:23:12.262Z,4.27
2019-02-18T00:25:41.947Z,4.23
2019-02-18T00:28:11.565Z,4.19
2019-02-18T00:30:40.884Z,4.17
2019-02-18T00:33:10.212Z,4.09
2019-02-18T00:35:39.868Z,4.19
2019-02-18T00:38:09.470Z,4.16
2019-02-18T00:40:39.091Z,4.31
2019-02-18T00:43:08.402Z,4.28
2019-02-18T00:45:37.734Z,4.31
2019-02-18T00:48:07.053Z,4.37
2019-02-18T00:50:36.381Z,4.38
2019-02-18T00:53:06.095Z,4.33
2019-02-18T00:55:35.446Z,4.22
2019-02-18T00:58:05.115Z,4.17
2019-02-18T01:00:34.819Z,4.23
2019-02-18T01:03:04.348Z,4.23
2019-02-18T01:05:34.030Z,4.17
2019-02-18T01:08:03.630Z,4.16
2019-02-18T01:10:33.446Z,4.27
2019-02-18T01:13:03.051Z,4.23
2019-02-18T01:15:32.759Z,4.21
2019-02-18T01:18:02.474Z,4.10
2019-02-18T01:20:32.084Z,4.10
2019-02-18T01:23:01.779Z,4.10
2019-02-18T01:25:31.217Z,4.25
2019-02-18T01:28:00.554Z,4.21
2019-02-18T01:30:30.194Z,4.15
2019-02-18T01:32:59.885Z,4.09
2019-02-18T01:35:29.604Z,4.02
2019-02-18T01:37:59.224Z,3.93
2019-02-18T01:40:28.926Z,3.87
2019-02-18T01:42:58.636Z,3.87
2019-02-18T01:45:27.947Z,3.84
2019-02-18T01:47:57.645Z,3.87
2019-02-18T01:50:26.987Z,3.85
2019-02-18T01:52:56.296Z,3.83
2019-02-18T01:55:25.628Z,3.91
2019-02-18T01:57:54.955Z,3.96
2019-02-18T02:00:24.641Z,3.95
2019-02-18T02:02:54.244Z,3.97
2019-02-18T02:05:23.857Z,4.00
2019-02-18T02:07:56.333Z,3.92
2019-02-18T02:10:24.363Z,3.95
2019-02-18T02:13:15.062Z,3.91
2019-02-18T02:15:44.389Z,3.91
2019-02-18T02:18:13.738Z,3.86
2019-02-18T02:20:43.059Z,3.85
2019-02-18T02:23:12.397Z,3.87
2019-02-18T02:25:42.037Z,3.84
2019-02-18T02:28:11.388Z,3.78
2019-02-18T02:30:40.716Z,3.85
2019-02-18T02:33:10.441Z,3.76
2019-02-18T02:35:40.070Z,3.74
2019-02-18T02:38:09.377Z,3.72
2019-02-18T02:40:39.186Z,3.71
2019-02-18T02:43:08.487Z,3.77
2019-02-18T02:45:38.673Z,3.73
2019-02-18T02:48:08.026Z,3.77
2019-02-18T02:50:37.374Z,3.78
2019-02-18T02:53:06.742Z,3.77
2019-02-18T02:55:36.128Z,3.68
2019-02-18T02:58:05.461Z,3.71
2019-02-18T03:00:35.022Z,3.63
2019-02-18T03:03:04.366Z,3.64
2019-02-18T03:05:33.705Z,3.62
2019-02-18T03:08:03.370Z,3.73
2019-02-18T03:10:33.075Z,3.71
2019-02-18T03:13:02.439Z,3.66
2019-02-18T03:15:31.765Z,3.62
2019-02-18T03:18:01.332Z,3.72
2019-02-18T03:20:30.669Z,3.57
2019-02-18T03:23:00.292Z,3.55
2019-02-18T03:25:32.190Z,3.57
2019-02-18T03:28:25.975Z,3.58
2019-02-18T03:31:03.034Z,3.58
2019-02-18T03:33:51.795Z,3.54
2019-02-18T03:36:21.570Z,3.51
2019-02-18T03:38:50.893Z,3.52
2019-02-18T03:41:20.261Z,3.55
2019-02-18T03:43:49.881Z,3.57
2019-02-18T03:46:19.187Z,3.49
2019-02-18T03:48:48.547Z,3.58
2019-02-18T03:51:17.889Z,3.75
2019-02-18T03:53:47.233Z,3.58
2019-02-18T03:56:16.915Z,3.59
2019-02-18T03:58:46.209Z,3.49
2019-02-18T04:01:15.900Z,3.49
2019-02-18T04:03:45.505Z,3.50
2019-02-18T04:06:14.831Z,3.40
2019-02-18T04:08:44.171Z,3.33
2019-02-18T04:11:13.572Z,3.33
2019-02-18T04:13:43.207Z,3.28
2019-02-18T04:16:12.525Z,3.23
2019-02-18T04:18:41.858Z,3.29
2019-02-18T04:21:11.231Z,3.24
2019-02-18T04:23:40.731Z,3.28
2019-02-18T04:26:10.421Z,3.24
2019-02-18T04:28:40.153Z,3.15
2019-02-18T04:31:09.486Z,3.28
2019-02-18T04:33:38.871Z,3.22
2019-02-18T04:36:08.342Z,3.14
2019-02-18T04:38:38.063Z,3.16
2019-02-18T04:41:07.766Z,3.15
2019-02-18T04:43:37.117Z,3.20
2019-02-18T04:46:06.452Z,3.13
2019-02-18T04:48:36.068Z,3.15
2019-02-18T04:51:05.420Z,3.10
2019-02-18T04:53:35.070Z,3.08
2019-02-18T04:56:04.535Z,3.19
2019-02-18T04:58:33.869Z,3.15
2019-02-18T05:01:03.210Z,3.22
2019-02-18T05:03:32.899Z,3.17
2019-02-18T05:06:02.262Z,3.07
2019-02-18T05:08:31.604Z,3.10
2019-02-18T05:11:01.310Z,3.07
2019-02-18T05:13:31.115Z,3.09
2019-02-18T05:16:00.799Z,3.14
2019-02-18T05:18:30.417Z,3.10
2019-02-18T05:21:00.124Z,3.08
2019-02-18T05:23:29.516Z,3.04
2019-02-18T05:25:58.850Z,3.02
2019-02-18T05:28:28.179Z,3.00
2019-02-18T05:30:57.522Z,2.94
2019-02-18T05:33:27.142Z,2.94
2019-02-18T05:35:56.471Z,2.90
2019-02-18T05:38:25.809Z,2.97
2019-02-18T05:40:55.549Z,2.94
2019-02-18T05:43:24.892Z,2.96
2019-02-18T05:45:54.240Z,2.90
2019-02-18T05:48:23.549Z,2.88
2019-02-18T05:50:53.073Z,2.90
2019-02-18T05:53:22.439Z,2.84
2019-02-18T05:55:51.761Z,2.85
2019-02-18T05:58:21.467Z,2.83
2019-02-18T06:00:51.172Z,2.84
2019-02-18T06:03:20.888Z,2.84
2019-02-18T06:05:50.502Z,2.82
2019-02-18T06:08:19.852Z,2.85
2019-02-18T06:10:49.200Z,2.88
2019-02-18T06:13:18.503Z,2.78
2019-02-18T06:15:47.861Z,2.75
2019-02-18T06:18:17.610Z,2.73
2019-02-18T06:20:47.290Z,2.82
2019-02-18T06:23:16.905Z,2.84
2019-02-18T06:25:46.243Z,2.78
2019-02-18T06:28:15.591Z,2.84
2019-02-18T06:30:44.917Z,2.79
2019-02-18T06:33:14.596Z,2.82
2019-02-18T06:35:43.904Z,2.78
2019-02-18T06:38:13.505Z,2.87
2019-02-18T06:40:43.107Z,2.88
2019-02-18T06:43:12.442Z,2.81
2019-02-18T06:45:43.807Z,2.87
2019-02-18T06:48:20.839Z,2.88
2019-02-18T06:50:53.268Z,2.88
2019-02-18T06:53:22.928Z,3.03
2019-02-18T06:55:52.319Z,3.04
2019-02-18T06:58:33.470Z,3.05
2019-02-18T07:01:04.431Z,3.10
2019-02-18T07:03:35.500Z,3.19
2019-02-18T07:06:12.584Z,3.28
2019-02-18T07:08:49.755Z,3.29
2019-02-18T07:11:21.103Z,3.41
2019-02-18T07:13:50.458Z,3.40
2019-02-18T07:16:19.778Z,3.25
2019-02-18T07:18:49.109Z,3.40
2019-02-18T07:21:18.715Z,3.43
2019-02-18T07:23:48.124Z,3.43
2019-02-18T07:26:17.464Z,3.56
2019-02-18T07:28:46.778Z,3.62
2019-02-18T07:31:16.106Z,3.57
2019-02-18T07:33:45.724Z,3.60
2019-02-18T07:36:15.037Z,3.68
2019-02-18T07:38:44.719Z,3.68
2019-02-18T07:41:14.057Z,3.78
2019-02-18T07:43:43.409Z,3.86
2019-02-18T07:46:13.012Z,4.04
2019-02-18T07:48:42.338Z,4.09
2019-02-18T07:51:11.990Z,4.14
2019-02-18T07:53:41.319Z,4.25
2019-02-18T07:56:10.914Z,4.47
2019-02-18T07:58:40.633Z,4.55
2019-02-18T08:01:10.249Z,4.64
2019-02-18T08:03:39.591Z,4.70
2019-02-18T08:06:08.927Z,4.74
2019-02-18T08:08:38.274Z,4.70
2019-02-18T08:11:07.596Z,4.71
2019-02-18T08:13:36.986Z,4.77
2019-02-18T08:16:06.357Z,4.96
2019-02-18T08:18:35.949Z,4.95
2019-02-18T08:21:05.671Z,5.03
2019-02-18T08:23:35.010Z,5.02
2019-02-18T08:26:05.053Z,5.10
2019-02-18T08:28:34.343Z,5.32
2019-02-18T08:31:03.934Z,5.48
2019-02-18T08:33:33.573Z,5.53
2019-02-18T08:36:03.242Z,5.56
2019-02-18T08:38:32.916Z,5.68
2019-02-18T08:41:02.246Z,5.75
2019-02-18T08:43:31.688Z,5.95
2019-02-18T08:46:01.026Z,5.98
2019-02-18T08:48:30.367Z,6.10
2019-02-18T08:50:59.791Z,6.20
2019-02-18T08:53:29.109Z,6.33
2019-02-18T08:55:58.437Z,6.39
2019-02-18T08:58:27.795Z,6.44
2019-02-18T09:01:02.557Z,6.58
2019-02-18T09:03:28.164Z,6.69
2019-02-18T09:05:57.558Z,6.81
2019-02-18T09:08:26.925Z,6.92
2019-02-18T09:10:56.233Z,6.97
2019-02-18T09:13:25.541Z,7.14
2019-02-18T09:16:00.002Z,7.21
2019-02-18T09:18:26.215Z,7.26
2019-02-18T09:20:55.524Z,7.38
2019-02-18T09:23:26.517Z,7.58
2019-02-18T09:25:56.022Z,7.65
2019-02-18T09:28:25.631Z,7.69
2019-02-18T09:30:55.219Z,7.80
2019-02-18T09:33:24.564Z,7.89
2019-02-18T09:35:54.176Z,8.00
2019-02-18T09:38:25.392Z,8.13
2019-02-18T09:40:54.834Z,8.30
2019-02-18T09:43:24.157Z,8.50
2019-02-18T09:45:53.512Z,8.57
2019-02-18T09:48:22.843Z,8.72
2019-02-18T09:50:52.579Z,8.79
2019-02-18T09:53:21.903Z,9.07
2019-02-18T09:55:51.264Z,9.13
2019-02-18T09:58:20.946Z,9.19
2019-02-18T10:00:50.380Z,9.36
2019-02-18T10:03:20.169Z,9.63
2019-02-18T10:05:49.508Z,9.93
2019-02-18T10:08:19.171Z,10.26
2019-02-18T10:10:55.762Z,10.64
2019-02-18T10:13:19.579Z,11.28
2019-02-18T10:15:49.322Z,11.98
2019-02-18T10:18:18.936Z,12.94
2019-02-18T10:20:48.507Z,13.89
2019-02-18T10:23:18.112Z,14.69
2019-02-18T10:25:47.725Z,15.46
2019-02-18T10:28:17.305Z,16.03
2019-02-18T10:30:46.654Z,16.27
2019-02-18T10:33:16.264Z,16.42
2019-02-18T10:35:45.604Z,17.41
2019-02-18T10:38:15.369Z,17.38
2019-02-18T10:40:44.770Z,17.78
2019-02-18T10:43:14.086Z,18.19
2019-02-18T10:45:43.511Z,18.42
2019-02-18T10:48:12.858Z,18.97
2019-02-18T10:50:42.493Z,19.57
2019-02-18T10:53:11.829Z,19.06
2019-02-18T10:55:41.437Z,19.04
2019-02-18T10:58:10.800Z,18.94
2019-02-18T11:00:40.388Z,19.22
2019-02-18T11:03:09.705Z,19.41
2019-02-18T11:05:39.473Z,20.00
2019-02-18T11:08:09.617Z,20.05
2019-02-18T11:10:39.233Z,20.03
2019-02-18T11:13:08.585Z,20.32
2019-02-18T11:15:37.920Z,20.58
2019-02-18T11:18:07.261Z,21.22
2019-02-18T11:20:36.660Z,21.24
2019-02-18T11:23:06.000Z,21.56
2019-02-18T11:25:35.316Z,21.15
2019-02-18T11:28:04.885Z,21.53
2019-02-18T11:30:34.478Z,21.41
2019-02-18T11:33:04.096Z,21.46
2019-02-18T11:35:33.412Z,21.76
2019-02-18T11:38:03.014Z,21.11
2019-02-18T11:40:32.610Z,20.42
2019-02-18T11:43:02.217Z,20.42
2019-02-18T11:45:31.563Z,21.12
2019-02-18T11:48:01.188Z,21.40
2019-02-18T11:50:30.520Z,21.81
2019-02-18T11:52:59.863Z,21.94
2019-02-18T11:55:29.671Z,20.85
2019-02-18T11:57:59.020Z,21.11
2019-02-18T12:00:28.627Z,22.03
2019-02-18T12:03:03.660Z,22.15
2019-02-18T12:05:29.344Z,22.23
2019-02-18T12:07:58.715Z,22.80
2019-02-18T12:10:28.661Z,22.83
2019-02-18T12:12:58.251Z,22.95
2019-02-18T12:15:27.639Z,22.21
2019-02-18T12:18:00.360Z,21.77
2019-02-18T12:20:30.044Z,21.18
2019-02-18T12:22:59.416Z,21.90
2019-02-18T12:25:28.764Z,22.09
2019-02-18T12:27:59.993Z,22.16
2019-02-18T12:30:29.710Z,22.02
2019-02-18T12:32:59.035Z,22.26
2019-02-18T12:35:32.663Z,22.77
2019-02-18T12:37:59.981Z,23.05
2019-02-18T12:40:29.662Z,22.65
2019-02-18T12:42:58.989Z,22.72
2019-02-18T12:45:28.796Z,22.68
2019-02-18T12:47:58.352Z,22.46
2019-02-18T12:50:27.690Z,22.07
2019-02-18T12:52:57.417Z,21.41
2019-02-18T12:55:26.959Z,20.65
2019-02-18T12:57:56.706Z,19.84
2019-02-18T13:00:26.083Z,19.20
2019-02-18T13:02:55.837Z,18.97
2019-02-18T13:05:25.177Z,18.65
2019-02-18T13:07:54.546Z,18.29
2019-02-18T13:10:34.481Z,18.08
2019-02-18T13:12:55.783Z,17.79
2019-02-18T13:15:25.216Z,17.70
2019-02-18T13:17:54.556Z,17.29
2019-02-18T13:20:23.890Z,17.10
2019-02-18T13:22:53.593Z,17.12
2019-02-18T13:25:23.308Z,16.81
2019-02-18T13:27:52.915Z,16.85
2019-02-18T13:30:22.250Z,16.77
2019-02-18T13:32:51.908Z,16.81
2019-02-18T13:35:21.262Z,16.64
2019-02-18T13:37:50.601Z,16.57
2019-02-18T13:40:19.960Z,16.51
2019-02-18T13:42:49.830Z,16.43
2019-02-18T13:45:19.174Z,16.42
2019-02-18T13:47:48.495Z,16.32
2019-02-18T13:50:18.158Z,16.44
2019-02-18T13:52:47.509Z,16.00
2019-02-18T13:55:17.087Z,15.80
2019-02-18T13:57:46.771Z,15.74
2019-02-18T14:00:21.198Z,15.74
2019-02-18T14:02:51.554Z,15.81
2019-02-18T14:05:22.218Z,15.78
2019-02-18T14:07:51.583Z,15.93
2019-02-18T14:10:21.729Z,16.04
2019-02-18T14:12:51.065Z,16.13
2019-02-18T14:15:21.187Z,15.98
2019-02-18T14:17:50.802Z,16.01
2019-02-18T14:20:20.515Z,16.02
2019-02-18T14:22:50.212Z,16.06
2019-02-18T14:25:19.548Z,16.14
2019-02-18T14:27:49.228Z,16.25
2019-02-18T14:30:19.580Z,16.17
2019-02-18T14:32:49.364Z,16.02
2019-02-18T14:35:19.383Z,15.96
2019-02-18T14:37:49.236Z,15.96
2019-02-18T14:40:20.469Z,15.92
2019-02-18T14:42:50.752Z,16.03
2019-02-18T14:45:20.579Z,16.04
2019-02-18T14:47:50.178Z,16.07
2019-02-18T14:50:19.990Z,15.98
2019-02-18T14:52:49.700Z,15.95
2019-02-18T14:55:19.043Z,15.79
2019-02-18T14:57:48.707Z,15.72
2019-02-18T15:00:24.134Z,15.61
2019-02-18T15:02:57.038Z,15.49
2019-02-18T15:05:27.560Z,15.52
2019-02-18T15:07:57.188Z,15.41
2019-02-18T15:10:26.791Z,15.27
2019-02-18T15:12:56.156Z,15.28
2019-02-18T15:15:25.802Z,15.13
2019-02-18T15:17:55.509Z,14.98
2019-02-18T15:20:24.927Z,14.97
2019-02-18T15:22:54.625Z,14.88
2019-02-18T15:25:23.960Z,14.70
2019-02-18T15:27:53.293Z,14.52
2019-02-18T15:30:22.998Z,14.45
2019-02-18T15:32:52.686Z,14.37
2019-02-18T15:35:22.458Z,14.34
2019-02-18T15:37:52.088Z,14.26
2019-02-18T15:40:21.763Z,14.17
2019-02-18T15:42:51.370Z,14.13
2019-02-18T15:45:20.979Z,14.01
2019-02-18T15:47:50.323Z,13.94
2019-02-18T15:50:19.919Z,13.75
2019-02-18T15:52:49.596Z,13.58
2019-02-18T15:55:18.949Z,13.48
2019-02-18T15:57:48.327Z,13.51
2019-02-18T16:00:24.863Z,13.39
2019-02-18T16:02:54.183Z,13.37
2019-02-18T16:05:23.534Z,13.17
2019-02-18T16:07:52.850Z,13.09
2019-02-18T16:10:22.500Z,13.09
2019-02-18T16:12:51.846Z,13.08
2019-02-18T16:15:21.162Z,12.97
2019-02-18T16:17:50.497Z,12.78
2019-02-18T16:20:19.862Z,12.66
2019-02-18T16:22:49.262Z,12.58
2019-02-18T16:25:24.260Z,12.53
2019-02-18T16:27:53.626Z,12.49
2019-02-18T16:30:23.755Z,12.34
2019-02-18T16:32:53.223Z,12.17
2019-02-18T16:35:22.597Z,12.09
2019-02-18T16:37:51.948Z,12.08
2019-02-18T16:40:21.920Z,11.90
2019-02-18T16:42:59.114Z,11.77
2019-02-18T16:45:22.685Z,11.67
2019-02-18T16:47:53.061Z,11.61
2019-02-18T16:50:22.384Z,11.55
2019-02-18T16:52:51.722Z,11.47
2019-02-18T16:55:21.366Z,11.32
2019-02-18T16:57:51.402Z,11.28
2019-02-18T17:00:22.381Z,11.19
2019-02-18T17:02:52.062Z,11.07
2019-02-18T17:05:21.840Z,11.09
2019-02-18T17:07:51.559Z,10.99
2019-02-18T17:10:20.924Z,10.97
2019-02-18T17:12:50.559Z,10.87
2019-02-18T17:15:20.182Z,10.81
2019-02-18T17:17:49.780Z,10.76
2019-02-18T17:20:19.417Z,10.69
2019-02-18T17:22:48.789Z,10.58
2019-02-18T17:25:18.682Z,10.47
2019-02-18T17:27:48.322Z,10.40
2019-02-18T17:30:17.775Z,10.41
2019-02-18T17:32:47.089Z,10.35
2019-02-18T17:35:16.450Z,10.27
2019-02-18T17:37:45.793Z,10.15
2019-02-18T17:40:15.601Z,10.12
2019-02-18T17:42:45.203Z,10.12
2019-02-18T17:45:19.179Z,10.02
2019-02-18T17:47:48.507Z,9.91
2019-02-18T17:50:18.634Z,10.03
2019-02-18T17:52:47.927Z,9.84
2019-02-18T17:55:21.764Z,9.79
2019-02-18T17:57:51.482Z,9.77
2019-02-18T18:00:27.032Z,9.71
2019-02-18T18:02:56.627Z,9.71
2019-02-18T18:05:26.251Z,9.61
2019-02-18T18:07:55.595Z,9.54
2019-02-18T18:10:24.909Z,9.43
2019-02-18T18:12:54.244Z,9.37
2019-02-18T18:15:23.850Z,9.33
2019-02-18T18:17:53.176Z,9.34
2019-02-18T18:20:22.826Z,9.36
2019-02-18T18:22:52.151Z,9.24
2019-02-18T18:25:22.060Z,9.23
2019-02-18T18:27:51.813Z,9.14
2019-02-18T18:30:21.608Z,9.02
2019-02-18T18:32:51.330Z,8.95
2019-02-18T18:35:20.645Z,8.88
2019-02-18T18:37:49.985Z,8.82
2019-02-18T18:40:20.330Z,8.76
2019-02-18T18:42:49.675Z,8.71
2019-02-18T18:45:19.708Z,8.64
2019-02-18T18:47:49.044Z,8.60
2019-02-18T18:50:23.146Z,8.61
2019-02-18T18:52:52.792Z,8.51
2019-02-18T18:55:22.132Z,8.48
2019-02-18T18:57:51.817Z,8.43
2019-02-18T19:00:25.326Z,8.30
2019-02-18T19:02:54.995Z,8.27
2019-02-18T19:05:24.638Z,8.27
2019-02-18T19:07:54.031Z,8.25
2019-02-18T19:10:23.345Z,8.20
2019-02-18T19:12:52.686Z,8.09
2019-02-18T19:15:22.053Z,8.00
2019-02-18T19:17:51.408Z,8.04
2019-02-18T19:20:21.125Z,7.97
2019-02-18T19:22:50.742Z,7.93
2019-02-18T19:25:20.433Z,8.02
2019-02-18T19:27:50.038Z,7.84
2019-02-18T19:30:34.417Z,7.69
2019-02-18T19:33:03.718Z,7.75
2019-02-18T19:35:33.050Z,7.64
2019-02-18T19:38:02.658Z,7.64
2019-02-18T19:40:32.412Z,7.69
2019-02-18T19:43:01.726Z,7.55
2019-02-18T19:45:31.433Z,7.48
2019-02-18T19:48:01.141Z,7.54
2019-02-18T19:50:30.842Z,7.33
2019-02-18T19:53:00.566Z,7.40
2019-02-18T19:55:30.213Z,7.41
2019-02-18T19:58:00.187Z,7.32
2019-02-18T20:00:29.581Z,7.27
2019-02-18T20:02:59.317Z,7.25
2019-02-18T20:05:28.915Z,7.16
2019-02-18T20:07:58.602Z,7.11
2019-02-18T20:10:27.906Z,7.07
2019-02-18T20:12:57.638Z,7.07
2019-02-18T20:15:27.222Z,7.03
2019-02-18T20:17:56.789Z,6.92
2019-02-18T20:20:26.332Z,6.89
2019-02-18T20:22:55.958Z,6.91
2019-02-18T20:25:25.315Z,6.83
2019-02-18T20:27:55.119Z,6.81
2019-02-18T20:30:24.794Z,6.89
2019-02-18T20:32:54.177Z,6.85
2019-02-18T20:35:24.043Z,6.78
2019-02-18T20:37:54.008Z,6.67
2019-02-18T20:40:23.972Z,6.67
2019-02-18T20:42:53.415Z,6.67
2019-02-18T20:45:23.065Z,6.66
2019-02-18T20:47:52.787Z,6.75
2019-02-18T20:50:22.604Z,6.63
2019-02-18T20:52:52.395Z,6.59
2019-02-18T20:55:21.958Z,6.55
2019-02-18T20:57:51.753Z,6.49
2019-02-18T21:00:21.527Z,6.53
2019-02-18T21:02:50.889Z,6.41
2019-02-18T21:05:20.266Z,6.34
2019-02-18T21:07:50.209Z,6.35
2019-02-18T21:10:21.897Z,6.31
2019-02-18T21:12:51.617Z,6.36
2019-02-18T21:15:21.433Z,6.18
2019-02-18T21:17:50.795Z,6.06
2019-02-18T21:20:20.546Z,6.08
2019-02-18T21:22:50.302Z,6.03
2019-02-18T21:25:20.099Z,6.04
2019-02-18T21:27:49.515Z,6.08
2019-02-18T21:30:19.565Z,6.06
2019-02-18T21:32:49.299Z,6.11
2019-02-18T21:35:19.083Z,5.95
2019-02-18T21:37:49.014Z,5.93
2019-02-18T21:40:18.379Z,6.01
2019-02-18T21:42:48.028Z,5.97
2019-02-18T21:45:17.439Z,5.94
2019-02-18T21:47:46.864Z,5.88
2019-02-18T21:50:16.536Z,5.89
2019-02-18T21:52:46.170Z,5.84
2019-02-18T21:55:15.544Z,5.91
2019-02-18T21:57:44.894Z,5.79
2019-02-18T22:00:21.667Z,5.83
2019-02-18T22:02:51.603Z,5.77
2019-02-18T22:05:20.984Z,5.77
2019-02-18T22:07:50.655Z,5.75
2019-02-18T22:10:20.362Z,5.73
2019-02-18T22:12:50.083Z,5.69
2019-02-18T22:15:19.779Z,5.76
2019-02-18T22:17:49.492Z,5.69
2019-02-18T22:20:20.817Z,5.63
2019-02-18T22:22:50.454Z,5.62
2019-02-18T22:25:20.179Z,5.60
2019-02-18T22:27:49.596Z,5.62
2019-02-18T22:30:19.273Z,5.62
2019-02-18T22:32:49.005Z,5.68
2019-02-18T22:35:19.109Z,5.63
2019-02-18T22:37:48.818Z,5.57
2019-02-18T22:40:18.208Z,5.61
2019-02-18T22:42:47.926Z,5.60
2019-02-18T22:45:17.638Z,5.63
2019-02-18T22:47:47.027Z,5.63
2019-02-18T22:50:16.856Z,5.51
2019-02-18T22:52:46.237Z,5.56
2019-02-18T22:55:15.971Z,5.61
2019-02-18T22:57:45.333Z,5.56
2019-02-18T23:00:30.656Z,5.50
2019-02-18T23:03:00.680Z,5.44
2019-02-18T23:05:30.375Z,5.39
2019-02-18T23:08:00.095Z,5.47
2019-02-18T23:10:29.782Z,5.48
2019-02-18T23:12:59.495Z,5.44
2019-02-18T23:15:29.415Z,5.45
2019-02-18T23:17:59.415Z,5.47
2019-02-18T23:20:29.133Z,5.34
2019-02-18T23:22:58.857Z,5.27
2019-02-18T23:25:28.221Z,5.33
2019-02-18T23:27:57.587Z,5.30
2019-02-18T23:30:27.266Z,5.33
2019-02-18T23:32:57.384Z,5.32
2019-02-18T23:35:27.029Z,5.28
2019-02-18T23:37:56.471Z,5.12
2019-02-18T23:40:25.837Z,5.10
2019-02-18T23:42:55.188Z,5.05
2019-02-18T23:45:24.913Z,4.99
2019-02-18T23:47:54.617Z,5.00
2019-02-18T23:50:24.313Z,5.00
2019-02-18T23:52:53.739Z,5.02
2019-02-18T23:55:23.087Z,5.02
2019-02-18T23:57:52.842Z,5.01
